createdAt,value
2023-02-07T00:01:27.370Z,30.05
2023-02-07T00:03:56.648Z,32.55
2023-02-07T00:06:36.497Z,31.52
2023-02-07T00:09:06.771Z,30.48
2023-02-07T00:11:35.359Z,29.15
2023-02-07T00:14:02.341Z,31.00
2023-02-07T00:16:29.292Z,28.58
2023-02-07T00:18:59.687Z,28.20
2023-02-07T00:21:27.821Z,26.92
2023-02-07T00:23:55.090Z,25.30
2023-02-07T00:26:24.651Z,26.65
2023-02-07T00:28:54.029Z,27.70
2023-02-07T00:31:28.337Z,26.30
2023-02-07T00:34:00.024Z,25.88
2023-02-07T00:36:28.809Z,25.60
2023-02-07T00:39:11.720Z,26.77
2023-02-07T00:41:39.197Z,24.75
2023-02-07T00:44:06.962Z,24.17
2023-02-07T00:46:34.982Z,28.45
2023-02-07T00:49:01.965Z,26.45
2023-02-07T00:51:29.118Z,24.65
2023-02-07T00:53:57.049Z,28.10
2023-02-07T00:56:26.691Z,26.58
2023-02-07T00:58:53.652Z,29.95
2023-02-07T01:01:20.984Z,33.47
2023-02-07T01:03:48.594Z,32.25
2023-02-07T01:06:15.361Z,28.02
2023-02-07T01:08:42.716Z,32.75
2023-02-07T01:11:13.789Z,27.20
2023-02-07T01:13:44.244Z,30.50
2023-02-07T01:16:27.286Z,32.42
2023-02-07T01:18:54.798Z,34.10
2023-02-07T01:21:25.029Z,30.42
2023-02-07T01:23:56.669Z,29.92
2023-02-07T01:26:25.670Z,25.38
2023-02-07T01:28:55.225Z,32.22
2023-02-07T01:31:23.548Z,27.15
2023-02-07T01:33:56.009Z,27.05
2023-02-07T01:36:23.310Z,26.25
2023-02-07T01:38:53.549Z,29.60
2023-02-07T01:41:23.009Z,24.70
2023-02-07T01:44:00.801Z,27.35
2023-02-07T01:46:29.931Z,29.00
2023-02-07T01:49:03.045Z,29.90
2023-02-07T01:51:31.945Z,27.48
2023-02-07T01:54:04.446Z,24.88
2023-02-07T01:56:33.239Z,27.77
2023-02-07T01:59:02.501Z,25.00
2023-02-07T02:01:29.915Z,25.95
2023-02-07T02:03:57.280Z,28.25
2023-02-07T02:06:28.658Z,26.88
2023-02-07T02:08:59.251Z,30.15
2023-02-07T02:11:42.057Z,28.60
2023-02-07T02:14:36.553Z,31.10
2023-02-07T02:17:25.165Z,23.40
2023-02-07T02:20:32.957Z,28.98
2023-02-07T02:23:30.310Z,30.65
2023-02-07T02:26:21.399Z,29.70
2023-02-07T02:29:45.866Z,30.00
2023-02-07T02:32:56.401Z,28.55
2023-02-07T02:35:35.048Z,31.00
2023-02-07T02:38:46.277Z,32.08
2023-02-07T02:41:24.203Z,31.00
2023-02-07T02:44:00.170Z,31.17
2023-02-07T02:46:33.110Z,31.02
2023-02-07T02:49:01.199Z,34.30
2023-02-07T02:51:32.764Z,29.95
2023-02-07T02:54:00.959Z,31.40
2023-02-07T02:56:33.871Z,31.27
2023-02-07T02:59:03.847Z,35.47
2023-02-07T03:01:57.801Z,30.27
2023-02-07T03:04:59.853Z,29.90
2023-02-07T03:08:02.233Z,30.67
2023-02-07T03:11:16.309Z,31.85
2023-02-07T03:14:44.170Z,35.00
2023-02-07T03:17:41.089Z,28.98
2023-02-07T03:20:28.625Z,28.10
2023-02-07T03:22:58.985Z,30.88
2023-02-07T03:25:28.014Z,31.73
2023-02-07T03:27:56.900Z,32.42
2023-02-07T03:30:29.118Z,29.05
2023-02-07T03:33:00.120Z,29.23
2023-02-07T03:35:38.979Z,27.55
2023-02-07T03:38:07.120Z,28.38
2023-02-07T03:40:43.640Z,30.52
2023-02-07T03:43:40.955Z,28.83
2023-02-07T03:46:10.066Z,30.38
2023-02-07T03:48:36.949Z,26.70
2023-02-07T03:51:04.026Z,32.15
2023-02-07T03:53:30.860Z,33.00
2023-02-07T03:55:57.731Z,28.63
2023-02-07T03:58:24.559Z,27.77
2023-02-07T04:00:51.593Z,31.42
2023-02-07T04:03:18.497Z,30.58
2023-02-07T04:05:46.687Z,28.98
2023-02-07T04:08:13.549Z,32.38
2023-02-07T04:10:40.323Z,29.65
2023-02-07T04:13:07.129Z,29.27
2023-02-07T04:15:34.101Z,31.15
2023-02-07T04:18:00.890Z,31.17
2023-02-07T04:20:27.959Z,30.90
2023-02-07T04:22:54.738Z,31.33
2023-02-07T04:25:21.589Z,29.02
2023-02-07T04:27:48.423Z,30.38
2023-02-07T04:30:15.258Z,29.80
2023-02-07T04:32:42.027Z,30.75
2023-02-07T04:35:09.085Z,29.60
2023-02-07T04:37:38.675Z,31.80
2023-02-07T04:40:06.121Z,27.10
2023-02-07T04:42:32.968Z,28.48
2023-02-07T04:45:00.134Z,24.55
2023-02-07T04:47:27.053Z,28.20
2023-02-07T04:49:53.829Z,25.42
2023-02-07T04:52:20.604Z,27.60
2023-02-07T04:54:47.382Z,32.67
2023-02-07T04:57:14.486Z,28.30
2023-02-07T04:59:41.414Z,28.45
2023-02-07T05:02:08.240Z,30.63
2023-02-07T05:04:35.026Z,26.73
2023-02-07T05:07:02.045Z,32.10
2023-02-07T05:09:28.888Z,26.27
2023-02-07T05:11:56.070Z,28.23
2023-02-07T05:14:22.936Z,27.73
2023-02-07T05:16:49.721Z,25.65
2023-02-07T05:19:16.595Z,29.77
2023-02-07T05:21:43.418Z,25.30
2023-02-07T05:24:10.251Z,29.55
2023-02-07T05:26:38.862Z,26.23
2023-02-07T05:29:06.851Z,29.17
2023-02-07T05:31:52.460Z,25.33
2023-02-07T05:34:19.286Z,27.42
2023-02-07T05:36:46.212Z,25.52
2023-02-07T05:39:13.059Z,25.70
2023-02-07T05:41:39.817Z,28.98
2023-02-07T05:44:07.181Z,25.98
2023-02-07T05:46:33.972Z,28.05
2023-02-07T05:49:00.879Z,26.98
2023-02-07T05:51:28.264Z,28.35
2023-02-07T05:53:55.074Z,25.20
2023-02-07T05:56:22.398Z,26.63
2023-02-07T05:58:49.188Z,25.83
2023-02-07T06:01:16.045Z,25.45
2023-02-07T06:03:42.829Z,24.17
2023-02-07T06:06:09.639Z,25.05
2023-02-07T06:08:36.705Z,27.40
2023-02-07T06:11:03.660Z,24.73
2023-02-07T06:13:30.478Z,24.90
2023-02-07T06:15:57.322Z,27.45
2023-02-07T06:18:25.058Z,24.27
2023-02-07T06:20:52.009Z,30.17
2023-02-07T06:23:20.946Z,28.08
2023-02-07T06:25:47.790Z,27.48
2023-02-07T06:28:14.755Z,27.17
2023-02-07T06:30:41.717Z,27.98
2023-02-07T06:33:08.695Z,25.35
2023-02-07T06:35:35.523Z,24.55
2023-02-07T06:38:02.404Z,28.00
2023-02-07T06:40:29.184Z,32.55
2023-02-07T06:42:56.101Z,34.33
2023-02-07T06:45:22.967Z,31.85
2023-02-07T06:47:50.072Z,32.75
2023-02-07T06:50:17.040Z,32.08
2023-02-07T06:52:44.939Z,29.05
2023-02-07T06:55:11.743Z,30.40
2023-02-07T06:57:38.531Z,28.70
2023-02-07T07:00:06.829Z,29.48
2023-02-07T07:02:33.675Z,33.30
2023-02-07T07:05:00.941Z,29.48
2023-02-07T07:07:27.860Z,30.40
2023-02-07T07:09:54.626Z,29.58
2023-02-07T07:12:22.550Z,26.85
2023-02-07T07:14:49.460Z,28.77
2023-02-07T07:17:16.214Z,25.00
2023-02-07T07:19:43.294Z,26.55
2023-02-07T07:22:10.094Z,26.70
2023-02-07T07:24:37.115Z,24.38
2023-02-07T07:27:04.123Z,24.85
2023-02-07T07:29:30.910Z,25.15
2023-02-07T07:31:57.928Z,23.00
2023-02-07T07:34:24.844Z,22.98
2023-02-07T07:36:54.250Z,23.15
2023-02-07T07:39:21.938Z,22.35
2023-02-07T07:41:49.113Z,22.73
2023-02-07T07:44:16.224Z,22.00
2023-02-07T07:46:43.082Z,23.52
2023-02-07T07:49:10.310Z,25.70
2023-02-07T07:51:37.405Z,22.85
2023-02-07T07:54:04.316Z,25.45
2023-02-07T07:56:31.796Z,23.25
2023-02-07T07:58:58.989Z,25.20
2023-02-07T08:01:26.705Z,24.65
2023-02-07T08:03:54.046Z,27.73
2023-02-07T08:06:21.348Z,26.58
2023-02-07T08:08:48.145Z,26.20
2023-02-07T08:11:15.085Z,24.73
2023-02-07T08:13:41.891Z,25.17
2023-02-07T08:16:09.129Z,23.70
2023-02-07T08:18:36.071Z,26.08
2023-02-07T08:21:03.701Z,24.77
2023-02-07T08:23:30.596Z,26.63
2023-02-07T08:25:58.175Z,25.45
2023-02-07T08:28:27.286Z,27.58
2023-02-07T08:30:54.738Z,29.98
2023-02-07T08:33:21.543Z,30.42
2023-02-07T08:35:51.397Z,33.42
2023-02-07T08:38:18.661Z,31.83
2023-02-07T08:40:46.926Z,30.45
2023-02-07T08:43:15.259Z,36.00
2023-02-07T08:45:47.412Z,32.15
2023-02-07T08:48:15.003Z,33.58
2023-02-07T08:50:41.832Z,29.55
2023-02-07T08:53:08.750Z,31.75
2023-02-07T08:55:36.051Z,33.33
2023-02-07T08:58:02.883Z,30.42
2023-02-07T09:00:29.686Z,31.65
2023-02-07T09:02:56.501Z,32.78
2023-02-07T09:05:23.321Z,36.47
2023-02-07T09:07:50.140Z,36.97
2023-02-07T09:10:16.985Z,38.63
2023-02-07T09:12:43.763Z,40.03
2023-02-07T09:15:10.870Z,35.33
2023-02-07T09:17:37.744Z,36.45
2023-02-07T09:20:05.023Z,42.47
2023-02-07T09:22:31.981Z,54.30
2023-02-07T09:24:59.383Z,43.95
2023-02-07T09:27:26.241Z,41.10
2023-02-07T09:29:53.020Z,38.85
2023-02-07T09:32:19.796Z,40.30
2023-02-07T09:34:46.606Z,38.38
2023-02-07T09:37:13.376Z,36.33
2023-02-07T09:39:41.533Z,37.90
2023-02-07T09:42:13.856Z,34.92
2023-02-07T09:45:02.397Z,36.70
2023-02-07T09:47:31.374Z,30.17
2023-02-07T09:50:14.497Z,31.08
2023-02-07T09:53:00.794Z,27.80
2023-02-07T09:55:39.511Z,32.00
2023-02-07T09:58:16.606Z,29.48
2023-02-07T10:01:00.552Z,32.05
2023-02-07T10:03:29.600Z,30.25
2023-02-07T10:06:17.463Z,32.97
2023-02-07T10:08:48.240Z,30.95
2023-02-07T10:11:51.305Z,28.67
2023-02-07T10:15:01.815Z,28.48
2023-02-07T10:18:08.298Z,31.77
2023-02-07T10:21:13.687Z,31.50
2023-02-07T10:24:18.637Z,29.88
2023-02-07T10:26:55.226Z,29.07
2023-02-07T10:29:49.400Z,29.48
2023-02-07T10:32:26.450Z,31.73
2023-02-07T10:34:58.893Z,28.23
2023-02-07T10:37:29.161Z,27.92
2023-02-07T10:40:12.277Z,30.65
2023-02-07T10:42:42.167Z,28.65
2023-02-07T10:45:14.742Z,33.13
2023-02-07T10:47:42.004Z,32.35
2023-02-07T10:50:29.429Z,34.53
2023-02-07T10:52:59.067Z,35.33
2023-02-07T10:55:47.207Z,30.90
2023-02-07T10:58:24.298Z,30.65
2023-02-07T11:00:53.973Z,32.42
2023-02-07T11:03:25.575Z,34.53
2023-02-07T11:06:04.455Z,32.95
2023-02-07T11:08:34.220Z,35.08
2023-02-07T11:11:31.948Z,30.85
2023-02-07T11:14:06.201Z,31.42
2023-02-07T11:16:33.789Z,34.05
2023-02-07T11:19:07.382Z,29.02
2023-02-07T11:21:34.091Z,30.52
2023-02-07T11:24:08.892Z,28.48
2023-02-07T11:29:21.462Z,27.67
2023-02-07T11:31:50.151Z,26.70
2023-02-07T11:34:49.119Z,28.17
2023-02-07T11:37:42.178Z,27.38
2023-02-07T11:40:45.374Z,28.73
2023-02-07T11:43:20.304Z,26.48
2023-02-07T11:45:50.483Z,27.25
2023-02-07T11:48:21.302Z,26.42
2023-02-07T11:50:58.534Z,25.75
2023-02-07T11:53:38.910Z,26.13
2023-02-07T11:56:06.420Z,25.63
2023-02-07T11:58:46.901Z,25.48
2023-02-07T12:01:22.256Z,23.42
2023-02-07T12:04:02.256Z,23.85
2023-02-07T12:06:42.540Z,24.65
2023-02-07T12:09:48.044Z,23.35
2023-02-07T12:12:51.994Z,23.23
2023-02-07T12:15:27.490Z,23.95
2023-02-07T12:18:25.590Z,22.55
2023-02-07T12:21:23.095Z,21.75
2023-02-07T12:24:00.487Z,21.13
2023-02-07T12:26:33.227Z,18.92
2023-02-07T12:29:44.553Z,18.90
2023-02-07T12:32:27.133Z,17.90
2023-02-07T12:35:24.040Z,16.70
2023-02-07T12:38:09.328Z,17.45
2023-02-07T12:43:38.476Z,17.00
2023-02-07T12:46:41.430Z,17.55
2023-02-07T12:49:20.283Z,16.67
2023-02-07T12:52:34.638Z,15.77
2023-02-07T12:55:44.173Z,16.38
2023-02-07T12:58:39.396Z,16.95
2023-02-07T13:01:35.683Z,16.75
2023-02-07T13:04:44.634Z,14.50
2023-02-07T13:07:40.151Z,13.40
2023-02-07T13:12:49.693Z,12.85
2023-02-07T13:15:35.062Z,11.07
2023-02-07T13:18:17.432Z,9.30
2023-02-07T13:21:01.324Z,9.75
2023-02-07T13:23:34.128Z,8.32
2023-02-07T13:26:06.516Z,8.02
2023-02-07T13:28:53.243Z,8.25
2023-02-07T13:31:25.226Z,6.63
2023-02-07T13:33:53.853Z,7.85
2023-02-07T13:36:23.628Z,7.68
2023-02-07T13:39:03.900Z,6.93
2023-02-07T13:42:18.036Z,6.88
2023-02-07T13:45:04.700Z,7.30
2023-02-07T13:48:04.952Z,6.63
2023-02-07T13:50:53.519Z,5.80
2023-02-07T13:53:37.956Z,6.10
2023-02-07T13:56:31.409Z,6.47
2023-02-07T13:59:17.151Z,5.57
2023-02-07T14:01:52.070Z,6.32
2023-02-07T14:07:05.467Z,5.32
2023-02-07T14:12:22.941Z,5.68
2023-02-07T14:15:01.857Z,5.38
2023-02-07T14:17:29.550Z,6.88
2023-02-07T14:20:05.514Z,6.18
2023-02-07T14:22:41.534Z,5.85
2023-02-07T14:25:17.525Z,6.43
2023-02-07T14:28:49.232Z,6.50
2023-02-07T14:31:31.137Z,6.63
2023-02-07T14:34:14.842Z,7.30
2023-02-07T14:36:42.587Z,7.05
2023-02-07T14:39:18.820Z,6.43
2023-02-07T14:41:48.494Z,5.75
2023-02-07T14:44:36.231Z,5.53
2023-02-07T14:47:05.996Z,5.28
2023-02-07T14:49:36.822Z,5.18
2023-02-07T14:52:21.527Z,5.53
2023-02-07T14:54:59.196Z,5.28
2023-02-07T14:57:35.700Z,6.28
2023-02-07T15:00:20.732Z,6.63
2023-02-07T15:02:50.531Z,6.18
2023-02-07T15:05:19.160Z,6.40
2023-02-07T15:07:47.488Z,6.78
2023-02-07T15:10:17.562Z,7.15
2023-02-07T15:12:44.672Z,7.65
2023-02-07T15:15:29.800Z,6.95
2023-02-07T15:18:00.008Z,7.65
2023-02-07T15:20:35.909Z,7.22
2023-02-07T15:23:08.936Z,8.05
2023-02-07T15:25:36.477Z,7.72
2023-02-07T15:28:29.600Z,7.43
2023-02-07T15:31:04.896Z,9.23
2023-02-07T15:33:41.475Z,7.50
2023-02-07T15:36:37.363Z,8.60
2023-02-07T15:39:23.686Z,9.60
2023-02-07T15:41:54.781Z,9.65
2023-02-07T15:44:29.126Z,9.02
2023-02-07T15:47:04.778Z,9.98
2023-02-07T15:49:41.268Z,9.40
2023-02-07T15:52:34.502Z,11.30
2023-02-07T15:55:06.079Z,12.52
2023-02-07T15:57:37.256Z,11.88
2023-02-07T16:00:09.967Z,11.63
2023-02-07T16:02:42.619Z,11.73
2023-02-07T16:05:32.847Z,13.48
2023-02-07T16:08:09.192Z,12.27
2023-02-07T16:10:40.267Z,13.77
2023-02-07T16:13:07.113Z,13.00
2023-02-07T16:15:54.132Z,11.45
2023-02-07T16:19:07.360Z,11.60
2023-02-07T16:21:36.065Z,12.10
2023-02-07T16:24:15.098Z,11.35
2023-02-07T16:26:42.981Z,10.88
2023-02-07T16:29:16.855Z,10.80
2023-02-07T16:31:44.268Z,8.23
2023-02-07T16:34:18.250Z,11.90
2023-02-07T16:36:52.373Z,11.40
2023-02-07T16:39:19.489Z,9.63
2023-02-07T16:41:49.716Z,12.48
2023-02-07T16:44:25.808Z,11.43
2023-02-07T16:46:53.151Z,12.45
2023-02-07T16:49:26.031Z,12.95
2023-02-07T16:51:53.578Z,12.98
2023-02-07T16:54:20.751Z,12.23
2023-02-07T16:56:54.212Z,12.00
2023-02-07T16:59:22.600Z,11.57
2023-02-07T17:01:52.588Z,12.85
2023-02-07T17:04:20.224Z,13.43
2023-02-07T17:06:47.670Z,17.75
2023-02-07T17:09:18.413Z,18.02
2023-02-07T17:11:46.024Z,17.38
2023-02-07T17:14:13.076Z,17.23
2023-02-07T17:16:40.304Z,15.93
2023-02-07T17:19:28.001Z,17.42
2023-02-07T17:21:56.728Z,18.30
2023-02-07T17:24:23.642Z,18.52
2023-02-07T17:26:54.093Z,16.73
2023-02-07T17:29:21.949Z,15.98
2023-02-07T17:31:49.389Z,14.05
2023-02-07T17:34:16.663Z,12.88
2023-02-07T17:36:50.176Z,12.80
2023-02-07T17:39:19.349Z,12.90
2023-02-07T17:41:46.232Z,10.70
2023-02-07T17:44:13.078Z,10.10
2023-02-07T17:46:39.897Z,10.93
2023-02-07T17:49:14.822Z,10.50
2023-02-07T17:51:41.657Z,11.10
2023-02-07T17:54:08.703Z,11.32
2023-02-07T17:56:36.088Z,10.20
2023-02-07T17:59:07.449Z,11.52
2023-02-07T18:01:34.299Z,13.02
2023-02-07T18:04:02.733Z,12.35
2023-02-07T18:06:30.897Z,11.82
2023-02-07T18:08:58.929Z,10.43
2023-02-07T18:11:27.566Z,9.55
2023-02-07T18:13:57.141Z,11.80
2023-02-07T18:16:26.465Z,17.83
2023-02-07T18:18:56.730Z,15.77
2023-02-07T18:21:23.830Z,14.57
2023-02-07T18:23:53.423Z,11.88
2023-02-07T18:26:20.894Z,10.65
2023-02-07T18:28:48.422Z,11.70
2023-02-07T18:31:19.658Z,12.32
2023-02-07T18:33:47.752Z,12.27
2023-02-07T18:36:15.454Z,10.65
2023-02-07T18:38:42.510Z,12.30
2023-02-07T18:41:16.934Z,12.10
2023-02-07T18:43:43.935Z,11.25
2023-02-07T18:46:14.985Z,12.30
2023-02-07T18:48:42.275Z,12.75
2023-02-07T18:51:12.569Z,13.82
2023-02-07T18:53:39.659Z,11.77
2023-02-07T18:56:15.661Z,13.60
2023-02-07T18:58:43.320Z,14.82
2023-02-07T19:01:19.198Z,16.25
2023-02-07T19:03:48.564Z,17.58
2023-02-07T19:06:15.358Z,19.88
2023-02-07T19:08:42.423Z,18.67
2023-02-07T19:11:10.193Z,19.35
2023-02-07T19:13:37.290Z,18.67
2023-02-07T19:16:12.823Z,20.05
2023-02-07T19:18:40.463Z,20.48
2023-02-07T19:21:14.789Z,19.67
2023-02-07T19:23:42.812Z,20.35
2023-02-07T19:26:10.837Z,21.20
2023-02-07T19:28:38.391Z,18.15
2023-02-07T19:31:13.592Z,20.15
2023-02-07T19:33:41.131Z,17.02
2023-02-07T19:36:11.004Z,19.85
2023-02-07T19:38:38.285Z,20.65
2023-02-07T19:41:06.556Z,22.33
2023-02-07T19:43:35.222Z,34.45
2023-02-07T19:46:02.886Z,31.20
2023-02-07T19:48:29.712Z,55.40
2023-02-07T19:51:06.281Z,43.65
2023-02-07T19:53:33.760Z,48.45
2023-02-07T19:56:11.502Z,44.25
2023-02-07T19:58:46.588Z,50.30
2023-02-07T20:01:14.177Z,54.72
2023-02-07T20:03:42.921Z,55.47
2023-02-07T20:06:13.507Z,47.53
2023-02-07T20:08:41.045Z,38.63
2023-02-07T20:11:11.874Z,36.58
2023-02-07T20:13:44.362Z,31.77
2023-02-07T20:16:15.155Z,28.27
2023-02-07T20:18:42.680Z,27.08
2023-02-07T20:21:14.975Z,23.48
2023-02-07T20:23:44.314Z,21.85
2023-02-07T20:26:15.565Z,22.33
2023-02-07T20:28:43.154Z,21.65
2023-02-07T20:31:12.974Z,21.33
2023-02-07T20:33:42.174Z,19.33
2023-02-07T20:36:11.548Z,19.83
2023-02-07T20:38:38.746Z,18.73
2023-02-07T20:41:36.221Z,17.48
2023-02-07T20:44:06.956Z,18.98
2023-02-07T20:46:36.352Z,18.15
2023-02-07T20:49:07.630Z,23.10
2023-02-07T20:51:35.190Z,21.73
2023-02-07T20:54:05.385Z,20.33
2023-02-07T20:56:33.787Z,22.25
2023-02-07T20:59:01.252Z,20.35
2023-02-07T21:01:31.156Z,18.77
2023-02-07T21:04:01.832Z,19.20
2023-02-07T21:06:29.624Z,18.70
2023-02-07T21:09:01.004Z,17.42
2023-02-07T21:11:36.243Z,20.02
2023-02-07T21:14:06.320Z,20.55
2023-02-07T21:16:33.934Z,18.70
2023-02-07T21:19:01.768Z,20.70
2023-02-07T21:21:29.338Z,17.92
2023-02-07T21:23:57.381Z,21.90
2023-02-07T21:26:24.549Z,26.85
2023-02-07T21:28:51.330Z,25.95
2023-02-07T21:31:20.664Z,29.63
2023-02-07T21:33:51.676Z,34.05
2023-02-07T21:36:25.564Z,38.95
2023-02-07T21:38:55.025Z,50.17
2023-02-07T21:41:25.680Z,47.63
2023-02-07T21:43:55.502Z,43.72
2023-02-07T21:46:30.604Z,39.60
2023-02-07T21:49:01.781Z,34.22
2023-02-07T21:51:31.402Z,33.00
2023-02-07T21:53:59.070Z,29.42
2023-02-07T21:56:31.930Z,24.02
2023-02-07T21:59:02.189Z,23.15
2023-02-07T22:01:30.674Z,21.00
2023-02-07T22:04:00.290Z,21.38
2023-02-07T22:06:28.121Z,20.83
2023-02-07T22:08:58.511Z,18.77
2023-02-07T22:11:29.104Z,19.05
2023-02-07T22:13:57.032Z,19.58
2023-02-07T22:16:26.414Z,16.45
2023-02-07T22:18:55.560Z,18.15
2023-02-07T22:21:29.227Z,16.58
2023-02-07T22:23:58.169Z,18.52
2023-02-07T22:26:26.556Z,18.13
2023-02-07T22:28:53.681Z,18.52
2023-02-07T22:31:26.812Z,19.95
2023-02-07T22:33:56.073Z,20.20
2023-02-07T22:36:26.973Z,19.27
2023-02-07T22:38:54.956Z,19.35
2023-02-07T22:41:22.627Z,19.30
2023-02-07T22:43:49.896Z,17.67
2023-02-07T22:46:22.633Z,18.83
2023-02-07T22:48:50.335Z,20.38
2023-02-07T22:51:38.240Z,21.25
2023-02-07T22:54:09.651Z,21.65
2023-02-07T22:56:38.382Z,22.42
2023-02-07T22:59:06.203Z,24.15
2023-02-07T23:01:39.041Z,25.25
2023-02-07T23:04:13.357Z,30.63
2023-02-07T23:06:40.405Z,33.42
2023-02-07T23:09:07.459Z,33.22
2023-02-07T23:11:35.083Z,33.42
2023-02-07T23:14:03.486Z,34.80
2023-02-07T23:16:31.970Z,30.98
2023-02-07T23:19:14.640Z,33.30
2023-02-07T23:21:41.452Z,33.42
2023-02-07T23:24:09.011Z,30.55
2023-02-07T23:26:35.884Z,32.50
2023-02-07T23:29:04.259Z,32.97
2023-02-07T23:31:31.676Z,31.95
2023-02-07T23:33:58.586Z,32.65
2023-02-07T23:36:26.008Z,31.25
2023-02-07T23:38:52.901Z,33.60
2023-02-07T23:41:19.954Z,32.42
2023-02-07T23:43:47.048Z,31.85
2023-02-07T23:46:15.923Z,31.90
2023-02-07T23:48:43.163Z,33.45
2023-02-07T23:51:12.327Z,35.50
2023-02-07T23:53:39.501Z,31.58
2023-02-07T23:56:07.426Z,32.83
2023-02-07T23:58:34.769Z,34.83
